sensor_id;sensor_type;location;lat;lon;timestamp;temperature;humidity
23540;DHT22;11947;50.810;4.394;2023-06-14T00:02:12;21.00;90.60
23540;DHT22;11947;50.810;4.394;2023-06-14T00:04:38;21.00;90.40
23540;DHT22;11947;50.810;4.394;2023-06-14T00:07:07;21.00;90.70
23540;DHT22;11947;50.810;4.394;2023-06-14T00:09:35;20.90;90.60
23540;DHT22;11947;50.810;4.394;2023-06-14T00:12:01;20.90;90.40
23540;DHT22;11947;50.810;4.394;2023-06-14T00:14:26;21.00;90.70
23540;DHT22;11947;50.810;4.394;2023-06-14T00:16:52;21.00;90.70
23540;DHT22;11947;50.810;4.394;2023-06-14T00:19:18;20.80;90.10
23540;DHT22;11947;50.810;4.394;2023-06-14T00:21:45;20.80;90.60
23540;DHT22;11947;50.810;4.394;2023-06-14T00:24:11;20.80;90.80
23540;DHT22;11947;50.810;4.394;2023-06-14T00:26:37;20.70;90.50
23540;DHT22;11947;50.810;4.394;2023-06-14T00:29:02;20.70;90.90
23540;DHT22;11947;50.810;4.394;2023-06-14T00:31:28;20.70;91.10
23540;DHT22;11947;50.810;4.394;2023-06-14T00:33:54;20.70;90.80
23540;DHT22;11947;50.810;4.394;2023-06-14T00:36:19;20.60;90.90
23540;DHT22;11947;50.810;4.394;2023-06-14T00:38:45;20.60;91.00
23540;DHT22;11947;50.810;4.394;2023-06-14T00:41:10;20.50;90.60
23540;DHT22;11947;50.810;4.394;2023-06-14T00:43:36;20.60;91.00
23540;DHT22;11947;50.810;4.394;2023-06-14T00:46:02;20.50;90.80
23540;DHT22;11947;50.810;4.394;2023-06-14T00:48:28;20.50;91.50
23540;DHT22;11947;50.810;4.394;2023-06-14T00:50:54;20.50;91.50
23540;DHT22;11947;50.810;4.394;2023-06-14T00:53:20;20.50;91.30
23540;DHT22;11947;50.810;4.394;2023-06-14T00:55:48;20.50;91.10
23540;DHT22;11947;50.810;4.394;2023-06-14T00:58:14;20.30;91.40
23540;DHT22;11947;50.810;4.394;2023-06-14T01:00:40;20.30;91.80
23540;DHT22;11947;50.810;4.394;2023-06-14T01:03:06;20.30;92.10
23540;DHT22;11947;50.810;4.394;2023-06-14T01:05:31;20.30;92.20
23540;DHT22;11947;50.810;4.394;2023-06-14T01:10:53;20.30;92.20
23540;DHT22;11947;50.810;4.394;2023-06-14T01:13:32;20.30;92.30
23540;DHT22;11947;50.810;4.394;2023-06-14T01:15:59;20.10;92.70
23540;DHT22;11947;50.810;4.394;2023-06-14T01:18:25;20.10;92.80
23540;DHT22;11947;50.810;4.394;2023-06-14T01:20:53;20.10;93.10
23540;DHT22;11947;50.810;4.394;2023-06-14T01:23:21;20.00;93.40
23540;DHT22;11947;50.810;4.394;2023-06-14T01:25:49;20.00;93.40
23540;DHT22;11947;50.810;4.394;2023-06-14T01:28:19;20.00;93.40
23540;DHT22;11947;50.810;4.394;2023-06-14T01:30:48;19.90;93.50
23540;DHT22;11947;50.810;4.394;2023-06-14T01:33:19;19.90;93.80
23540;DHT22;11947;50.810;4.394;2023-06-14T01:35:47;19.80;93.80
23540;DHT22;11947;50.810;4.394;2023-06-14T01:38:14;19.80;94.20
23540;DHT22;11947;50.810;4.394;2023-06-14T01:40:42;19.70;94.30
23540;DHT22;11947;50.810;4.394;2023-06-14T01:43:11;19.70;94.10
23540;DHT22;11947;50.810;4.394;2023-06-14T01:45:40;19.70;94.50
23540;DHT22;11947;50.810;4.394;2023-06-14T01:48:06;19.70;94.40
23540;DHT22;11947;50.810;4.394;2023-06-14T01:50:31;19.60;94.20
23540;DHT22;11947;50.810;4.394;2023-06-14T01:52:57;19.60;94.10
23540;DHT22;11947;50.810;4.394;2023-06-14T01:55:23;19.50;93.70
23540;DHT22;11947;50.810;4.394;2023-06-14T01:57:50;19.50;93.70
23540;DHT22;11947;50.810;4.394;2023-06-14T02:00:17;19.40;92.90
23540;DHT22;11947;50.810;4.394;2023-06-14T02:02:44;19.40;93.40
23540;DHT22;11947;50.810;4.394;2023-06-14T02:05:11;19.40;93.10
23540;DHT22;11947;50.810;4.394;2023-06-14T02:07:37;19.50;92.80
23540;DHT22;11947;50.810;4.394;2023-06-14T02:10:04;19.50;92.70
23540;DHT22;11947;50.810;4.394;2023-06-14T02:12:31;19.50;92.70
23540;DHT22;11947;50.810;4.394;2023-06-14T02:14:56;19.50;92.80
23540;DHT22;11947;50.810;4.394;2023-06-14T02:17:23;19.50;92.30
23540;DHT22;11947;50.810;4.394;2023-06-14T02:19:49;19.50;92.40
23540;DHT22;11947;50.810;4.394;2023-06-14T02:22:16;19.50;92.60
23540;DHT22;11947;50.810;4.394;2023-06-14T02:24:42;19.50;92.20
23540;DHT22;11947;50.810;4.394;2023-06-14T02:27:08;19.50;93.10
23540;DHT22;11947;50.810;4.394;2023-06-14T02:29:36;19.40;92.80
23540;DHT22;11947;50.810;4.394;2023-06-14T02:32:03;19.40;92.60
23540;DHT22;11947;50.810;4.394;2023-06-14T02:34:29;19.40;93.00
23540;DHT22;11947;50.810;4.394;2023-06-14T02:36:54;19.40;92.30
23540;DHT22;11947;50.810;4.394;2023-06-14T02:39:20;19.30;91.90
23540;DHT22;11947;50.810;4.394;2023-06-14T02:41:49;19.30;91.70
23540;DHT22;11947;50.810;4.394;2023-06-14T02:44:17;19.30;91.50
23540;DHT22;11947;50.810;4.394;2023-06-14T02:46:42;19.10;91.80
23540;DHT22;11947;50.810;4.394;2023-06-14T02:49:09;19.20;91.70
23540;DHT22;11947;50.810;4.394;2023-06-14T02:51:35;19.10;91.70
23540;DHT22;11947;50.810;4.394;2023-06-14T02:54:00;19.30;92.20
23540;DHT22;11947;50.810;4.394;2023-06-14T02:56:26;19.20;92.10
23540;DHT22;11947;50.810;4.394;2023-06-14T02:58:53;19.10;91.70
23540;DHT22;11947;50.810;4.394;2023-06-14T03:01:18;19.10;91.70
23540;DHT22;11947;50.810;4.394;2023-06-14T03:03:46;19.10;91.80
23540;DHT22;11947;50.810;4.394;2023-06-14T03:06:12;19.20;92.80
23540;DHT22;11947;50.810;4.394;2023-06-14T03:08:40;19.20;93.20
23540;DHT22;11947;50.810;4.394;2023-06-14T03:11:07;19.30;91.90
23540;DHT22;11947;50.810;4.394;2023-06-14T03:13:35;19.10;92.40
23540;DHT22;11947;50.810;4.394;2023-06-14T03:16:01;19.10;92.40
23540;DHT22;11947;50.810;4.394;2023-06-14T03:18:30;19.10;92.30
23540;DHT22;11947;50.810;4.394;2023-06-14T03:20:56;19.10;92.70
23540;DHT22;11947;50.810;4.394;2023-06-14T03:23:24;19.10;92.10
23540;DHT22;11947;50.810;4.394;2023-06-14T03:25:50;19.10;92.20
23540;DHT22;11947;50.810;4.394;2023-06-14T03:28:17;19.10;92.70
23540;DHT22;11947;50.810;4.394;2023-06-14T03:30:42;19.10;92.60
23540;DHT22;11947;50.810;4.394;2023-06-14T03:33:08;19.10;92.30
23540;DHT22;11947;50.810;4.394;2023-06-14T03:35:34;19.00;93.10
23540;DHT22;11947;50.810;4.394;2023-06-14T03:38:00;19.00;92.50
23540;DHT22;11947;50.810;4.394;2023-06-14T03:40:28;19.10;92.40
23540;DHT22;11947;50.810;4.394;2023-06-14T03:42:54;19.10;93.00
23540;DHT22;11947;50.810;4.394;2023-06-14T03:45:20;19.10;92.80
23540;DHT22;11947;50.810;4.394;2023-06-14T03:47:46;19.10;92.50
23540;DHT22;11947;50.810;4.394;2023-06-14T03:50:11;19.00;93.10
23540;DHT22;11947;50.810;4.394;2023-06-14T03:52:37;19.10;93.30
23540;DHT22;11947;50.810;4.394;2023-06-14T03:55:04;19.20;93.50
23540;DHT22;11947;50.810;4.394;2023-06-14T03:57:30;19.10;93.40
23540;DHT22;11947;50.810;4.394;2023-06-14T03:59:56;19.10;92.50
23540;DHT22;11947;50.810;4.394;2023-06-14T04:02:21;19.00;92.40
23540;DHT22;11947;50.810;4.394;2023-06-14T04:04:48;18.80;92.90
23540;DHT22;11947;50.810;4.394;2023-06-14T04:07:14;18.80;93.00
23540;DHT22;11947;50.810;4.394;2023-06-14T04:09:40;18.80;93.20
23540;DHT22;11947;50.810;4.394;2023-06-14T04:12:07;18.90;93.30
23540;DHT22;11947;50.810;4.394;2023-06-14T04:14:34;18.90;93.20
23540;DHT22;11947;50.810;4.394;2023-06-14T04:17:00;18.80;93.40
23540;DHT22;11947;50.810;4.394;2023-06-14T04:19:26;18.90;93.30
23540;DHT22;11947;50.810;4.394;2023-06-14T04:21:52;18.90;93.40
23540;DHT22;11947;50.810;4.394;2023-06-14T04:24:17;19.00;93.70
23540;DHT22;11947;50.810;4.394;2023-06-14T04:26:44;19.00;93.60
23540;DHT22;11947;50.810;4.394;2023-06-14T04:29:14;19.00;93.60
23540;DHT22;11947;50.810;4.394;2023-06-14T04:31:42;19.00;93.80
23540;DHT22;11947;50.810;4.394;2023-06-14T04:34:07;18.80;93.80
23540;DHT22;11947;50.810;4.394;2023-06-14T04:36:33;18.70;93.90
23540;DHT22;11947;50.810;4.394;2023-06-14T04:39:00;18.70;94.20
23540;DHT22;11947;50.810;4.394;2023-06-14T04:41:29;19.00;94.10
23540;DHT22;11947;50.810;4.394;2023-06-14T04:43:57;18.90;94.10
23540;DHT22;11947;50.810;4.394;2023-06-14T04:46:24;18.90;94.10
23540;DHT22;11947;50.810;4.394;2023-06-14T04:48:49;19.00;94.50
23540;DHT22;11947;50.810;4.394;2023-06-14T04:51:15;19.10;94.40
23540;DHT22;11947;50.810;4.394;2023-06-14T04:53:41;19.20;94.20
23540;DHT22;11947;50.810;4.394;2023-06-14T04:56:08;19.20;94.20
23540;DHT22;11947;50.810;4.394;2023-06-14T04:58:34;19.30;94.10
23540;DHT22;11947;50.810;4.394;2023-06-14T05:00:59;19.30;93.90
23540;DHT22;11947;50.810;4.394;2023-06-14T05:03:27;19.30;93.80
23540;DHT22;11947;50.810;4.394;2023-06-14T05:05:54;19.30;93.80
23540;DHT22;11947;50.810;4.394;2023-06-14T05:08:21;19.40;93.90
23540;DHT22;11947;50.810;4.394;2023-06-14T05:10:49;19.50;93.70
23540;DHT22;11947;50.810;4.394;2023-06-14T05:13:15;19.30;93.60
23540;DHT22;11947;50.810;4.394;2023-06-14T05:15:40;19.30;93.80
23540;DHT22;11947;50.810;4.394;2023-06-14T05:18:06;19.40;93.80
23540;DHT22;11947;50.810;4.394;2023-06-14T05:20:35;19.20;94.10
23540;DHT22;11947;50.810;4.394;2023-06-14T05:23:02;19.20;94.00
23540;DHT22;11947;50.810;4.394;2023-06-14T05:25:28;19.20;94.20
23540;DHT22;11947;50.810;4.394;2023-06-14T05:27:54;19.20;94.10
23540;DHT22;11947;50.810;4.394;2023-06-14T05:30:20;19.30;94.20
23540;DHT22;11947;50.810;4.394;2023-06-14T05:32:45;19.40;94.10
23540;DHT22;11947;50.810;4.394;2023-06-14T05:35:11;19.30;93.90
23540;DHT22;11947;50.810;4.394;2023-06-14T05:37:37;19.50;94.30
23540;DHT22;11947;50.810;4.394;2023-06-14T05:40:03;19.60;93.50
23540;DHT22;11947;50.810;4.394;2023-06-14T05:42:33;19.70;93.20
23540;DHT22;11947;50.810;4.394;2023-06-14T05:44:58;19.90;93.10
23540;DHT22;11947;50.810;4.394;2023-06-14T05:47:24;20.00;93.30
23540;DHT22;11947;50.810;4.394;2023-06-14T05:49:51;20.00;93.00
23540;DHT22;11947;50.810;4.394;2023-06-14T05:52:16;20.10;92.70
23540;DHT22;11947;50.810;4.394;2023-06-14T05:54:42;20.20;92.40
23540;DHT22;11947;50.810;4.394;2023-06-14T05:57:08;20.30;91.80
23540;DHT22;11947;50.810;4.394;2023-06-14T05:59:34;20.30;91.50
23540;DHT22;11947;50.810;4.394;2023-06-14T06:01:59;20.50;92.10
23540;DHT22;11947;50.810;4.394;2023-06-14T06:04:25;20.60;91.50
23540;DHT22;11947;50.810;4.394;2023-06-14T06:06:51;20.60;91.60
23540;DHT22;11947;50.810;4.394;2023-06-14T06:09:16;20.80;91.90
23540;DHT22;11947;50.810;4.394;2023-06-14T06:11:42;21.00;91.10
23540;DHT22;11947;50.810;4.394;2023-06-14T06:14:07;21.10;91.50
23540;DHT22;11947;50.810;4.394;2023-06-14T06:16:36;21.20;91.00
23540;DHT22;11947;50.810;4.394;2023-06-14T06:19:02;21.40;91.70
23540;DHT22;11947;50.810;4.394;2023-06-14T06:21:27;21.70;91.20
23540;DHT22;11947;50.810;4.394;2023-06-14T06:23:53;21.80;90.20
23540;DHT22;11947;50.810;4.394;2023-06-14T06:26:21;21.90;90.00
23540;DHT22;11947;50.810;4.394;2023-06-14T06:28:47;22.00;90.20
23540;DHT22;11947;50.810;4.394;2023-06-14T06:31:12;22.10;89.50
23540;DHT22;11947;50.810;4.394;2023-06-14T06:33:38;22.40;90.20
23540;DHT22;11947;50.810;4.394;2023-06-14T06:36:05;22.80;90.60
23540;DHT22;11947;50.810;4.394;2023-06-14T06:38:31;23.20;89.50
23540;DHT22;11947;50.810;4.394;2023-06-14T06:40:56;23.40;87.20
23540;DHT22;11947;50.810;4.394;2023-06-14T06:43:22;23.60;87.20
23540;DHT22;11947;50.810;4.394;2023-06-14T06:45:48;24.00;86.60
23540;DHT22;11947;50.810;4.394;2023-06-14T06:48:13;23.60;84.30
23540;DHT22;11947;50.810;4.394;2023-06-14T06:50:39;23.80;85.80
23540;DHT22;11947;50.810;4.394;2023-06-14T06:53:05;24.00;84.30
23540;DHT22;11947;50.810;4.394;2023-06-14T06:55:32;24.30;85.70
23540;DHT22;11947;50.810;4.394;2023-06-14T06:57:57;24.60;84.50
23540;DHT22;11947;50.810;4.394;2023-06-14T07:00:23;24.90;82.90
23540;DHT22;11947;50.810;4.394;2023-06-14T07:02:49;25.10;80.60
23540;DHT22;11947;50.810;4.394;2023-06-14T07:05:14;25.30;82.70
23540;DHT22;11947;50.810;4.394;2023-06-14T07:07:40;25.50;82.60
23540;DHT22;11947;50.810;4.394;2023-06-14T07:10:06;25.60;81.40
23540;DHT22;11947;50.810;4.394;2023-06-14T07:12:33;25.70;80.60
23540;DHT22;11947;50.810;4.394;2023-06-14T07:15:01;25.80;78.10
23540;DHT22;11947;50.810;4.394;2023-06-14T07:17:26;25.90;77.90
23540;DHT22;11947;50.810;4.394;2023-06-14T07:19:52;26.00;79.50
23540;DHT22;11947;50.810;4.394;2023-06-14T07:22:18;26.30;81.20
23540;DHT22;11947;50.810;4.394;2023-06-14T07:24:44;26.30;79.10
23540;DHT22;11947;50.810;4.394;2023-06-14T07:27:10;26.20;78.30
23540;DHT22;11947;50.810;4.394;2023-06-14T07:29:36;26.40;78.80
23540;DHT22;11947;50.810;4.394;2023-06-14T07:32:02;26.70;78.40
23540;DHT22;11947;50.810;4.394;2023-06-14T07:34:28;26.60;77.50
23540;DHT22;11947;50.810;4.394;2023-06-14T07:36:54;26.70;78.10
23540;DHT22;11947;50.810;4.394;2023-06-14T07:39:19;26.50;78.40
23540;DHT22;11947;50.810;4.394;2023-06-14T07:41:45;26.40;75.40
23540;DHT22;11947;50.810;4.394;2023-06-14T07:44:11;26.60;78.80
23540;DHT22;11947;50.810;4.394;2023-06-14T07:46:37;26.70;76.10
23540;DHT22;11947;50.810;4.394;2023-06-14T07:49:04;27.00;75.80
23540;DHT22;11947;50.810;4.394;2023-06-14T07:51:30;26.90;78.30
23540;DHT22;11947;50.810;4.394;2023-06-14T07:53:56;27.20;76.90
23540;DHT22;11947;50.810;4.394;2023-06-14T07:56:21;27.40;76.40
23540;DHT22;11947;50.810;4.394;2023-06-14T07:58:48;27.40;77.70
23540;DHT22;11947;50.810;4.394;2023-06-14T08:01:14;27.60;76.60
23540;DHT22;11947;50.810;4.394;2023-06-14T08:03:40;27.60;73.90
23540;DHT22;11947;50.810;4.394;2023-06-14T08:06:06;27.70;75.20
23540;DHT22;11947;50.810;4.394;2023-06-14T08:08:32;27.80;74.80
23540;DHT22;11947;50.810;4.394;2023-06-14T08:10:58;28.00;74.60
23540;DHT22;11947;50.810;4.394;2023-06-14T08:13:23;28.20;72.10
23540;DHT22;11947;50.810;4.394;2023-06-14T08:15:49;28.10;71.60
23540;DHT22;11947;50.810;4.394;2023-06-14T08:18:15;28.10;71.20
23540;DHT22;11947;50.810;4.394;2023-06-14T08:20:41;28.20;72.50
23540;DHT22;11947;50.810;4.394;2023-06-14T08:23:07;28.40;71.90
23540;DHT22;11947;50.810;4.394;2023-06-14T08:25:33;28.20;70.50
23540;DHT22;11947;50.810;4.394;2023-06-14T08:27:59;28.40;70.60
23540;DHT22;11947;50.810;4.394;2023-06-14T08:30:25;28.60;71.40
23540;DHT22;11947;50.810;4.394;2023-06-14T08:32:51;28.80;71.80
23540;DHT22;11947;50.810;4.394;2023-06-14T08:35:17;28.60;69.20
23540;DHT22;11947;50.810;4.394;2023-06-14T08:37:43;28.70;72.50
23540;DHT22;11947;50.810;4.394;2023-06-14T08:40:19;29.10;72.90
23540;DHT22;11947;50.810;4.394;2023-06-14T08:42:48;29.20;71.40
23540;DHT22;11947;50.810;4.394;2023-06-14T08:45:15;29.20;71.00
23540;DHT22;11947;50.810;4.394;2023-06-14T08:47:41;29.10;71.80
23540;DHT22;11947;50.810;4.394;2023-06-14T08:50:07;29.30;70.60
23540;DHT22;11947;50.810;4.394;2023-06-14T08:52:37;29.20;70.40
23540;DHT22;11947;50.810;4.394;2023-06-14T08:55:08;29.00;70.80
23540;DHT22;11947;50.810;4.394;2023-06-14T08:57:36;28.90;72.00
23540;DHT22;11947;50.810;4.394;2023-06-14T09:00:03;28.90;68.70
23540;DHT22;11947;50.810;4.394;2023-06-14T09:02:39;29.00;71.20
23540;DHT22;11947;50.810;4.394;2023-06-14T09:05:12;29.00;71.80
23540;DHT22;11947;50.810;4.394;2023-06-14T09:07:39;29.10;71.00
23540;DHT22;11947;50.810;4.394;2023-06-14T09:10:11;29.20;72.30
23540;DHT22;11947;50.810;4.394;2023-06-14T09:12:37;29.40;73.20
23540;DHT22;11947;50.810;4.394;2023-06-14T09:15:04;29.40;72.50
23540;DHT22;11947;50.810;4.394;2023-06-14T09:17:38;29.50;72.50
23540;DHT22;11947;50.810;4.394;2023-06-14T09:20:08;29.60;72.00
23540;DHT22;11947;50.810;4.394;2023-06-14T09:22:39;29.80;69.70
23540;DHT22;11947;50.810;4.394;2023-06-14T09:25:05;29.60;68.20
23540;DHT22;11947;50.810;4.394;2023-06-14T09:27:32;29.60;69.00
23540;DHT22;11947;50.810;4.394;2023-06-14T09:29:58;29.60;68.80
23540;DHT22;11947;50.810;4.394;2023-06-14T09:32:23;29.60;68.10
23540;DHT22;11947;50.810;4.394;2023-06-14T09:34:50;29.60;67.40
23540;DHT22;11947;50.810;4.394;2023-06-14T09:37:32;29.60;68.20
23540;DHT22;11947;50.810;4.394;2023-06-14T09:39:58;29.90;69.30
23540;DHT22;11947;50.810;4.394;2023-06-14T09:42:24;29.80;65.70
23540;DHT22;11947;50.810;4.394;2023-06-14T09:44:52;29.70;67.80
23540;DHT22;11947;50.810;4.394;2023-06-14T09:47:18;29.90;67.60
23540;DHT22;11947;50.810;4.394;2023-06-14T09:49:45;30.10;68.90
23540;DHT22;11947;50.810;4.394;2023-06-14T09:52:13;30.40;68.50
23540;DHT22;11947;50.810;4.394;2023-06-14T09:54:43;30.70;65.50
23540;DHT22;11947;50.810;4.394;2023-06-14T09:57:11;30.90;66.40
23540;DHT22;11947;50.810;4.394;2023-06-14T09:59:44;31.00;65.60
23540;DHT22;11947;50.810;4.394;2023-06-14T10:02:18;31.20;66.00
23540;DHT22;11947;50.810;4.394;2023-06-14T10:04:53;31.60;64.80
23540;DHT22;11947;50.810;4.394;2023-06-14T10:07:23;31.90;63.70
23540;DHT22;11947;50.810;4.394;2023-06-14T10:09:53;32.00;63.70
23540;DHT22;11947;50.810;4.394;2023-06-14T10:12:18;32.30;64.50
23540;DHT22;11947;50.810;4.394;2023-06-14T10:14:48;32.90;62.10
23540;DHT22;11947;50.810;4.394;2023-06-14T10:17:22;33.10;59.90
23540;DHT22;11947;50.810;4.394;2023-06-14T10:19:54;33.60;60.60
23540;DHT22;11947;50.810;4.394;2023-06-14T10:22:30;33.90;60.10
23540;DHT22;11947;50.810;4.394;2023-06-14T10:24:57;34.80;58.50
23540;DHT22;11947;50.810;4.394;2023-06-14T10:27:23;35.40;57.30
23540;DHT22;11947;50.810;4.394;2023-06-14T10:32:20;37.20;54.20
23540;DHT22;11947;50.810;4.394;2023-06-14T10:34:51;36.30;54.20
23540;DHT22;11947;50.810;4.394;2023-06-14T10:37:18;36.20;53.60
23540;DHT22;11947;50.810;4.394;2023-06-14T10:39:45;37.10;53.50
23540;DHT22;11947;50.810;4.394;2023-06-14T10:42:15;37.50;51.60
23540;DHT22;11947;50.810;4.394;2023-06-14T10:45:00;37.70;50.20
23540;DHT22;11947;50.810;4.394;2023-06-14T10:47:32;38.20;50.30
23540;DHT22;11947;50.810;4.394;2023-06-14T10:50:09;38.20;49.90
23540;DHT22;11947;50.810;4.394;2023-06-14T10:52:41;37.80;49.20
23540;DHT22;11947;50.810;4.394;2023-06-14T10:57:46;38.50;48.60
23540;DHT22;11947;50.810;4.394;2023-06-14T11:00:14;39.60;47.20
23540;DHT22;11947;50.810;4.394;2023-06-14T11:05:49;39.40;46.10
23540;DHT22;11947;50.810;4.394;2023-06-14T11:08:39;40.30;46.50
23540;DHT22;11947;50.810;4.394;2023-06-14T11:11:07;39.70;47.70
23540;DHT22;11947;50.810;4.394;2023-06-14T11:13:33;41.20;46.50
23540;DHT22;11947;50.810;4.394;2023-06-14T11:16:00;40.90;45.10
23540;DHT22;11947;50.810;4.394;2023-06-14T11:18:25;41.40;45.80
23540;DHT22;11947;50.810;4.394;2023-06-14T11:20:53;42.30;45.20
23540;DHT22;11947;50.810;4.394;2023-06-14T11:23:18;43.00;44.50
23540;DHT22;11947;50.810;4.394;2023-06-14T11:25:50;44.00;43.60
23540;DHT22;11947;50.810;4.394;2023-06-14T11:28:16;44.50;42.50
23540;DHT22;11947;50.810;4.394;2023-06-14T11:30:42;43.70;44.30
23540;DHT22;11947;50.810;4.394;2023-06-14T11:33:10;44.20;43.90
23540;DHT22;11947;50.810;4.394;2023-06-14T11:35:36;45.00;42.10
23540;DHT22;11947;50.810;4.394;2023-06-14T11:38:02;44.30;41.50
23540;DHT22;11947;50.810;4.394;2023-06-14T11:40:28;44.60;42.10
23540;DHT22;11947;50.810;4.394;2023-06-14T11:43:01;44.70;44.10
23540;DHT22;11947;50.810;4.394;2023-06-14T11:45:27;45.30;42.30
23540;DHT22;11947;50.810;4.394;2023-06-14T11:47:55;46.10;41.00
23540;DHT22;11947;50.810;4.394;2023-06-14T11:50:24;44.90;41.40
23540;DHT22;11947;50.810;4.394;2023-06-14T11:52:58;45.20;41.80
23540;DHT22;11947;50.810;4.394;2023-06-14T11:55:25;45.60;40.40
23540;DHT22;11947;50.810;4.394;2023-06-14T11:57:53;43.20;42.80
23540;DHT22;11947;50.810;4.394;2023-06-14T12:00:24;42.70;42.60
23540;DHT22;11947;50.810;4.394;2023-06-14T12:02:54;42.70;43.10
23540;DHT22;11947;50.810;4.394;2023-06-14T12:05:22;43.10;41.50
23540;DHT22;11947;50.810;4.394;2023-06-14T12:07:47;44.70;42.70
23540;DHT22;11947;50.810;4.394;2023-06-14T12:10:14;44.50;40.70
23540;DHT22;11947;50.810;4.394;2023-06-14T12:12:40;45.20;41.70
23540;DHT22;11947;50.810;4.394;2023-06-14T12:15:08;44.90;41.70
23540;DHT22;11947;50.810;4.394;2023-06-14T12:17:35;44.40;41.30
23540;DHT22;11947;50.810;4.394;2023-06-14T12:20:14;44.10;41.80
23540;DHT22;11947;50.810;4.394;2023-06-14T12:22:58;44.00;42.50
23540;DHT22;11947;50.810;4.394;2023-06-14T12:25:30;45.00;43.30
23540;DHT22;11947;50.810;4.394;2023-06-14T12:28:03;46.20;41.40
23540;DHT22;11947;50.810;4.394;2023-06-14T12:30:30;44.70;41.00
23540;DHT22;11947;50.810;4.394;2023-06-14T12:32:55;44.50;40.80
23540;DHT22;11947;50.810;4.394;2023-06-14T12:35:21;44.90;40.10
23540;DHT22;11947;50.810;4.394;2023-06-14T12:37:47;45.70;40.80
23540;DHT22;11947;50.810;4.394;2023-06-14T12:40:13;46.20;40.20
23540;DHT22;11947;50.810;4.394;2023-06-14T12:42:39;45.40;40.30
23540;DHT22;11947;50.810;4.394;2023-06-14T12:45:05;45.10;40.10
23540;DHT22;11947;50.810;4.394;2023-06-14T12:47:31;44.60;40.50
23540;DHT22;11947;50.810;4.394;2023-06-14T12:49:56;45.20;40.70
23540;DHT22;11947;50.810;4.394;2023-06-14T12:52:22;46.20;40.40
23540;DHT22;11947;50.810;4.394;2023-06-14T12:54:47;47.00;39.80
23540;DHT22;11947;50.810;4.394;2023-06-14T12:57:13;45.40;39.90
23540;DHT22;11947;50.810;4.394;2023-06-14T12:59:39;44.40;41.40
23540;DHT22;11947;50.810;4.394;2023-06-14T13:02:12;44.40;41.10
23540;DHT22;11947;50.810;4.394;2023-06-14T13:04:38;44.80;40.90
23540;DHT22;11947;50.810;4.394;2023-06-14T13:07:04;45.60;42.00
23540;DHT22;11947;50.810;4.394;2023-06-14T13:09:30;46.40;40.10
23540;DHT22;11947;50.810;4.394;2023-06-14T13:11:56;46.40;38.80
23540;DHT22;11947;50.810;4.394;2023-06-14T13:14:22;45.70;39.10
23540;DHT22;11947;50.810;4.394;2023-06-14T13:16:48;46.10;40.60
23540;DHT22;11947;50.810;4.394;2023-06-14T13:19:13;45.30;40.80
23540;DHT22;11947;50.810;4.394;2023-06-14T13:21:39;45.70;39.50
23540;DHT22;11947;50.810;4.394;2023-06-14T13:24:05;45.30;40.10
23540;DHT22;11947;50.810;4.394;2023-06-14T13:26:31;45.30;39.70
23540;DHT22;11947;50.810;4.394;2023-06-14T13:28:56;44.40;39.80
23540;DHT22;11947;50.810;4.394;2023-06-14T13:31:22;44.90;39.60
23540;DHT22;11947;50.810;4.394;2023-06-14T13:33:47;44.60;40.00
23540;DHT22;11947;50.810;4.394;2023-06-14T13:36:13;44.20;40.50
23540;DHT22;11947;50.810;4.394;2023-06-14T13:38:39;43.90;40.20
23540;DHT22;11947;50.810;4.394;2023-06-14T13:41:04;43.70;41.20
23540;DHT22;11947;50.810;4.394;2023-06-14T13:43:30;44.10;41.50
23540;DHT22;11947;50.810;4.394;2023-06-14T13:45:56;43.60;41.00
23540;DHT22;11947;50.810;4.394;2023-06-14T13:48:21;44.20;40.60
23540;DHT22;11947;50.810;4.394;2023-06-14T13:50:47;44.50;40.20
23540;DHT22;11947;50.810;4.394;2023-06-14T13:53:13;43.40;40.30
23540;DHT22;11947;50.810;4.394;2023-06-14T13:55:39;43.20;40.60
23540;DHT22;11947;50.810;4.394;2023-06-14T13:58:05;42.60;40.60
23540;DHT22;11947;50.810;4.394;2023-06-14T14:00:30;42.20;40.70
23540;DHT22;11947;50.810;4.394;2023-06-14T14:02:56;42.60;43.20
23540;DHT22;11947;50.810;4.394;2023-06-14T14:05:22;43.00;40.30
23540;DHT22;11947;50.810;4.394;2023-06-14T14:07:53;43.00;39.80
23540;DHT22;11947;50.810;4.394;2023-06-14T14:10:20;43.50;39.70
23540;DHT22;11947;50.810;4.394;2023-06-14T14:12:46;43.20;39.80
23540;DHT22;11947;50.810;4.394;2023-06-14T14:15:12;42.00;40.50
23540;DHT22;11947;50.810;4.394;2023-06-14T14:17:40;41.30;40.90
23540;DHT22;11947;50.810;4.394;2023-06-14T14:20:06;39.70;42.30
23540;DHT22;11947;50.810;4.394;2023-06-14T14:22:32;38.70;44.50
23540;DHT22;11947;50.810;4.394;2023-06-14T14:24:58;37.40;44.50
23540;DHT22;11947;50.810;4.394;2023-06-14T14:27:23;36.00;45.90
23540;DHT22;11947;50.810;4.394;2023-06-14T14:29:49;34.50;47.20
23540;DHT22;11947;50.810;4.394;2023-06-14T14:32:15;33.30;48.10
23540;DHT22;11947;50.810;4.394;2023-06-14T14:34:40;32.60;49.20
23540;DHT22;11947;50.810;4.394;2023-06-14T14:37:06;32.20;50.00
23540;DHT22;11947;50.810;4.394;2023-06-14T14:39:32;31.80;50.10
23540;DHT22;11947;50.810;4.394;2023-06-14T14:41:58;31.40;51.50
23540;DHT22;11947;50.810;4.394;2023-06-14T14:44:23;31.10;51.70
23540;DHT22;11947;50.810;4.394;2023-06-14T14:46:49;31.00;52.20
23540;DHT22;11947;50.810;4.394;2023-06-14T14:49:15;30.80;53.10
23540;DHT22;11947;50.810;4.394;2023-06-14T14:51:40;30.70;53.50
23540;DHT22;11947;50.810;4.394;2023-06-14T14:54:06;30.40;53.30
23540;DHT22;11947;50.810;4.394;2023-06-14T14:56:32;30.20;53.00
23540;DHT22;11947;50.810;4.394;2023-06-14T14:58:58;30.10;53.70
23540;DHT22;11947;50.810;4.394;2023-06-14T15:01:24;30.00;52.80
23540;DHT22;11947;50.810;4.394;2023-06-14T15:03:49;29.90;53.40
23540;DHT22;11947;50.810;4.394;2023-06-14T15:06:15;29.70;54.10
23540;DHT22;11947;50.810;4.394;2023-06-14T15:08:43;29.60;53.70
23540;DHT22;11947;50.810;4.394;2023-06-14T15:11:08;29.40;53.30
23540;DHT22;11947;50.810;4.394;2023-06-14T15:13:34;29.40;53.20
23540;DHT22;11947;50.810;4.394;2023-06-14T15:16:00;29.20;53.30
23540;DHT22;11947;50.810;4.394;2023-06-14T15:18:25;29.00;53.80
23540;DHT22;11947;50.810;4.394;2023-06-14T15:20:51;28.90;53.70
23540;DHT22;11947;50.810;4.394;2023-06-14T15:23:16;28.50;54.10
23540;DHT22;11947;50.810;4.394;2023-06-14T15:25:46;28.20;55.10
23540;DHT22;11947;50.810;4.394;2023-06-14T15:28:26;28.10;56.10
23540;DHT22;11947;50.810;4.394;2023-06-14T15:30:58;28.10;56.20
23540;DHT22;11947;50.810;4.394;2023-06-14T15:33:24;28.20;56.80
23540;DHT22;11947;50.810;4.394;2023-06-14T15:35:53;28.00;57.00
23540;DHT22;11947;50.810;4.394;2023-06-14T15:38:20;27.90;56.60
23540;DHT22;11947;50.810;4.394;2023-06-14T15:40:47;27.90;56.30